Time;durP1;ratioP1;P1;durP2;ratioP2;P2;SDS_P1;SDS_P2;PMS_P1;PMS_P2;Temp;Humidity;BMP_temperature;BMP_pressure;BME280_temperature;BME280_humidity;BME280_pressure;Samples;Min_cycle;Max_cycle;Signal;HPM_P1;HPM_P2
2023/04/14 00:02:24;;;;;;;5.63;2.70;;;5.70;99.90;;;;;;4761185;30;20527;-72
2023/04/14 00:04:52;;;;;;;4.85;2.90;;;5.70;99.90;;;;;;4758988;30;20105;-71
2023/04/14 00:07:20;;;;;;;4.75;2.70;;;5.70;99.90;;;;;;4750006;30;20051;-73
2023/04/14 00:09:47;;;;;;;5.22;2.80;;;5.60;99.90;;;;;;4758593;30;20083;-72
2023/04/14 00:12:15;;;;;;;4.70;2.88;;;5.60;99.90;;;;;;4766819;30;20555;-70
2023/04/14 00:14:42;;;;;;;5.18;2.60;;;5.70;99.90;;;;;;4759976;30;20576;-72
2023/04/14 00:17:10;;;;;;;4.28;2.70;;;5.70;99.90;;;;;;4747777;30;20154;-72
2023/04/14 00:19:37;;;;;;;5.50;3.58;;;5.70;99.90;;;;;;4759308;30;20059;-72
2023/04/14 00:22:05;;;;;;;4.15;2.38;;;5.70;99.90;;;;;;4764523;30;20051;-69
2023/04/14 00:24:32;;;;;;;3.90;2.38;;;5.70;99.90;;;;;;4754198;30;20594;-72
2023/04/14 00:27:00;;;;;;;3.85;2.45;;;5.70;99.90;;;;;;4751211;30;20079;-70
2023/04/14 00:29:27;;;;;;;3.85;2.45;;;5.70;99.90;;;;;;4741728;30;20048;-71
2023/04/14 00:31:54;;;;;;;4.03;2.70;;;5.60;99.90;;;;;;4764713;30;20418;-70
2023/04/14 00:34:21;;;;;;;5.50;2.60;;;5.60;99.90;;;;;;4758033;30;20078;-72
2023/04/14 00:36:49;;;;;;;5.53;2.60;;;5.60;99.90;;;;;;4766383;30;20139;-71
2023/04/14 00:39:17;;;;;;;4.55;2.55;;;5.60;99.90;;;;;;4757908;30;20492;-71
2023/04/14 00:41:44;;;;;;;5.35;2.78;;;5.60;99.90;;;;;;4760580;30;20052;-72
2023/04/14 00:44:11;;;;;;;5.80;2.95;;;5.60;99.90;;;;;;4732930;30;20058;-73
2023/04/14 00:46:40;;;;;;;5.13;3.08;;;5.60;99.90;;;;;;4764484;30;20515;-71
2023/04/14 00:49:08;;;;;;;5.50;2.92;;;5.60;99.90;;;;;;4750212;30;20154;-72
2023/04/14 00:51:36;;;;;;;6.35;3.30;;;5.50;99.90;;;;;;4749227;30;20603;-71
2023/04/14 00:54:08;;;;;;;4.32;2.90;;;5.50;99.90;;;;;;4750059;30;20409;-71
2023/04/14 00:56:35;;;;;;;7.95;3.72;;;5.40;99.90;;;;;;4757640;30;20236;-70
2023/04/14 00:59:05;;;;;;;5.50;3.40;;;5.40;99.90;;;;;;4761790;30;20426;-73
2023/04/14 01:01:36;;;;;;;6.47;4.43;;;5.40;99.90;;;;;;4765104;30;20051;-71
2023/04/14 01:04:04;;;;;;;4.32;3.08;;;5.40;99.90;;;;;;4764691;30;20588;-71
2023/04/14 01:06:35;;;;;;;5.45;3.08;;;5.30;99.90;;;;;;4773430;30;20044;-72
2023/04/14 01:09:03;;;;;;;6.10;3.35;;;5.40;99.90;;;;;;4745275;30;20554;-71
2023/04/14 01:11:48;;;;;;;5.18;3.60;;;5.40;99.90;;;;;;4756918;30;20106;-70
2023/04/14 01:14:21;;;;;;;5.65;3.30;;;5.40;99.90;;;;;;4757110;30;20446;-70
2023/04/14 01:16:52;;;;;;;6.03;3.53;;;5.40;99.90;;;;;;4771618;30;20047;-71
2023/04/14 01:19:57;;;;;;;5.10;3.17;;;5.40;99.90;;;;;;4757548;30;20047;-73
2023/04/14 01:22:32;;;;;;;8.02;3.65;;;5.50;99.90;;;;;;4757465;30;20145;-72
2023/04/14 01:25:02;;;;;;;5.40;3.60;;;5.50;99.90;;;;;;4763380;30;20198;-72
2023/04/14 01:27:47;;;;;;;5.43;3.42;;;5.50;99.90;;;;;;4757822;30;20406;-73
2023/04/14 01:30:38;;;;;;;5.20;3.50;;;5.50;99.90;;;;;;4760776;30;20051;-71
2023/04/14 01:33:08;;;;;;;5.47;3.50;;;5.50;99.90;;;;;;4730779;30;20499;-70
2023/04/14 01:35:52;;;;;;;6.28;3.70;;;5.50;99.90;;;;;;4745074;30;20083;-72
2023/04/14 01:38:27;;;;;;;6.18;3.90;;;5.50;99.90;;;;;;4710880;30;20068;-71
2023/04/14 01:41:04;;;;;;;6.00;3.90;;;5.50;99.90;;;;;;4737466;30;20563;-70
2023/04/14 01:43:36;;;;;;;8.27;4.50;;;5.50;99.90;;;;;;4744135;30;20628;-72
2023/04/14 01:46:06;;;;;;;;;;;5.40;99.90;;;;;;4732099;30;20364;-72
2023/04/14 01:48:34;;;;;;;6.45;4.35;;;5.40;99.90;;;;;;4745997;30;19963;-73
2023/04/14 01:51:02;;;;;;;6.85;4.40;;;5.40;99.90;;;;;;4727578;30;20044;-71
2023/04/14 01:53:32;;;;;;;8.70;3.90;;;5.40;99.90;;;;;;4724619;30;20086;-72
2023/04/14 01:56:01;;;;;;;6.18;3.80;;;5.40;99.90;;;;;;4727432;30;20123;-71
2023/04/14 01:58:31;;;;;;;6.60;3.83;;;5.40;99.90;;;;;;4726273;30;20079;-70
2023/04/14 02:00:59;;;;;;;6.30;3.42;;;5.30;99.90;;;;;;4744653;30;20121;-72
2023/04/14 02:03:28;;;;;;;6.25;3.50;;;5.30;99.90;;;;;;4745688;30;20497;-70
2023/04/14 02:05:56;;;;;;;5.90;3.53;;;5.30;99.90;;;;;;4737733;30;20453;-72
2023/04/14 02:08:24;;;;;;;5.13;3.38;;;5.30;99.90;;;;;;4729903;30;20584;-69
2023/04/14 02:10:53;;;;;;;6.38;3.55;;;5.30;99.90;;;;;;4769441;30;20075;-70
2023/04/14 02:13:22;;;;;;;6.38;3.63;;;5.30;99.90;;;;;;4749534;30;20083;-73
2023/04/14 02:15:51;;;;;;;6.15;3.58;;;5.30;99.90;;;;;;4757597;30;20139;-70
2023/04/14 02:18:21;;;;;;;8.02;3.53;;;5.30;99.90;;;;;;4766323;30;20112;-72
2023/04/14 02:20:51;;;;;;;6.78;3.53;;;5.30;99.90;;;;;;4743765;30;20310;-72
2023/04/14 02:23:19;;;;;;;6.07;3.53;;;5.30;99.90;;;;;;4780253;30;20127;-71
2023/04/14 02:25:56;;;;;;;6.35;3.90;;;5.20;99.90;;;;;;4752067;30;20063;-69
2023/04/14 02:28:28;;;;;;;6.18;3.60;;;5.30;99.90;;;;;;4767582;30;20055;-72
2023/04/14 02:30:58;;;;;;;7.05;4.40;;;5.20;99.90;;;;;;4767921;30;20047;-70
2023/04/14 02:33:30;;;;;;;5.30;3.70;;;5.20;99.90;;;;;;4753404;30;20139;-71
2023/04/14 02:36:13;;;;;;;6.57;4.18;;;5.30;99.90;;;;;;4764776;30;20127;-69
2023/04/14 02:39:03;;;;;;;6.45;4.25;;;5.20;99.90;;;;;;4759281;30;20530;-71
2023/04/14 02:41:33;;;;;;;6.18;4.40;;;5.20;99.90;;;;;;4763373;30;20056;-72
2023/04/14 02:44:24;;;;;;;8.98;4.60;;;5.20;99.90;;;;;;4758913;30;20047;-73
2023/04/14 02:47:06;;;;;;;7.25;4.63;;;5.20;99.90;;;;;;4774104;30;20076;-73
2023/04/14 02:49:41;;;;;;;8.82;5.15;;;5.20;99.90;;;;;;4771135;30;20062;-71
2023/04/14 02:52:13;;;;;;;7.25;5.38;;;5.20;99.90;;;;;;4759106;30;20470;-71
2023/04/14 02:54:42;;;;;;;8.98;5.53;;;5.20;99.90;;;;;;4752916;30;20105;-71
2023/04/14 02:57:11;;;;;;;9.65;5.85;;;5.20;99.90;;;;;;4753412;30;20047;-70
2023/04/14 02:59:43;;;;;;;8.70;6.53;;;5.20;99.90;;;;;;4774244;30;20048;-72
2023/04/14 03:02:12;;;;;;;8.13;6.22;;;5.10;99.90;;;;;;4777488;30;20044;-71
2023/04/14 03:04:45;;;;;;;9.40;6.80;;;5.10;99.90;;;;;;4741848;30;20504;-72
2023/04/14 03:07:22;;;;;;;12.90;7.28;;;5.10;99.90;;;;;;4760109;30;20071;-71
2023/04/14 03:09:51;;;;;;;10.95;7.35;;;5.10;99.90;;;;;;4749583;30;20048;-71
2023/04/14 03:12:21;;;;;;;10.60;7.00;;;5.10;99.90;;;;;;4762092;30;20055;-70
2023/04/14 03:14:50;;;;;;;9.82;6.82;;;5.10;99.90;;;;;;4756335;30;20075;-70
2023/04/14 03:17:19;;;;;;;10.38;7.78;;;5.10;99.90;;;;;;4753372;30;20055;-71
2023/04/14 03:19:51;;;;;;;12.13;7.43;;;5.10;99.90;;;;;;4765441;30;20077;-73
2023/04/14 03:22:21;;;;;;;10.43;6.80;;;5.20;99.90;;;;;;4761594;30;20056;-72
2023/04/14 03:24:55;;;;;;;12.07;7.78;;;5.20;99.90;;;;;;4765384;30;20047;-68
2023/04/14 03:27:28;;;;;;;11.30;7.60;;;5.20;99.90;;;;;;4762162;30;20425;-70
2023/04/14 03:30:06;;;;;;;12.38;7.70;;;5.20;99.90;;;;;;4764264;30;20040;-71
2023/04/14 03:32:40;;;;;;;11.60;7.55;;;5.20;99.90;;;;;;4758818;30;20138;-71
2023/04/14 03:35:14;;;;;;;13.65;8.05;;;5.10;99.90;;;;;;4759175;30;20483;-71
2023/04/14 03:37:44;;;;;;;11.20;8.18;;;5.10;99.90;;;;;;4751009;30;20070;-70
2023/04/14 03:40:14;;;;;;;9.95;7.53;;;5.10;99.90;;;;;;4747468;30;20405;-71
2023/04/14 03:42:45;;;;;;;12.02;7.80;;;5.10;99.90;;;;;;4754275;30;20492;-70
2023/04/14 03:45:17;;;;;;;12.50;8.25;;;5.10;99.90;;;;;;4764990;30;20117;-71
2023/04/14 03:47:44;;;;;;;12.00;8.40;;;5.10;99.90;;;;;;4778954;30;20075;-71
2023/04/14 03:50:14;;;;;;;13.02;8.45;;;5.10;99.90;;;;;;4762909;30;20055;-69
2023/04/14 03:52:45;;;;;;;12.65;9.57;;;5.10;99.90;;;;;;4742013;30;20098;-69
2023/04/14 03:55:17;;;;;;;13.10;9.50;;;5.10;99.90;;;;;;4759449;30;20116;-72
2023/04/14 03:57:48;;;;;;;15.90;10.00;;;5.10;99.90;;;;;;4757580;30;20052;-71
2023/04/14 04:00:17;;;;;;;16.60;10.43;;;5.00;99.90;;;;;;4746009;30;20059;-72
2023/04/14 04:02:47;;;;;;;16.88;10.88;;;5.00;99.90;;;;;;4747003;30;20111;-71
2023/04/14 04:05:15;;;;;;;14.70;9.68;;;5.00;99.90;;;;;;4750630;30;20535;-72
2023/04/14 04:07:44;;;;;;;15.55;10.57;;;4.90;99.90;;;;;;4734012;30;20105;-70
2023/04/14 04:10:13;;;;;;;16.48;10.13;;;4.90;99.90;;;;;;4762484;30;20098;-71
2023/04/14 04:12:42;;;;;;;15.68;10.57;;;5.00;99.90;;;;;;4771009;30;20082;-71
2023/04/14 04:15:11;;;;;;;17.30;10.10;;;4.90;99.90;;;;;;4766279;30;20475;-70
2023/04/14 04:17:41;;;;;;;14.02;9.32;;;4.90;99.90;;;;;;4763109;30;20044;-73
2023/04/14 04:20:11;;;;;;;13.80;9.38;;;4.90;99.90;;;;;;4769284;30;20048;-71
2023/04/14 04:22:43;;;;;;;16.25;10.10;;;4.90;99.90;;;;;;4769994;30;20091;-71
2023/04/14 04:25:11;;;;;;;16.73;10.40;;;4.90;99.90;;;;;;4763131;30;20056;-70
2023/04/14 04:27:45;;;;;;;16.45;10.57;;;4.90;99.90;;;;;;4770339;30;20127;-70
2023/04/14 04:30:17;;;;;;;16.20;10.80;;;4.90;99.90;;;;;;4747104;30;20059;-70
2023/04/14 04:32:45;;;;;;;14.23;10.00;;;4.80;99.90;;;;;;4745174;30;20059;-70
2023/04/14 04:35:13;;;;;;;14.20;9.27;;;4.80;99.90;;;;;;4744564;30;20424;-72
2023/04/14 04:37:42;;;;;;;14.85;9.73;;;4.80;99.90;;;;;;4747948;30;20121;-71
2023/04/14 04:40:11;;;;;;;14.82;9.15;;;4.70;99.90;;;;;;4757419;30;20509;-69
2023/04/14 04:42:42;;;;;;;17.90;10.52;;;4.80;99.90;;;;;;4751949;30;20563;-70
2023/04/14 04:45:30;;;;;;;13.85;10.07;;;4.80;99.90;;;;;;4776586;30;20048;-69
2023/04/14 04:47:57;;;;;;;16.20;10.05;;;4.80;99.90;;;;;;4760173;30;20048;-69
2023/04/14 04:50:25;;;;;;;17.08;10.75;;;4.80;99.90;;;;;;4758979;30;20499;-69
2023/04/14 04:52:52;;;;;;;13.85;9.77;;;4.90;99.90;;;;;;4763482;30;20587;-70
2023/04/14 04:55:19;;;;;;;14.20;10.23;;;4.90;99.90;;;;;;4759229;30;20048;-70
2023/04/14 04:57:47;;;;;;;14.07;10.30;;;4.90;99.90;;;;;;4763585;30;20061;-71
2023/04/14 05:00:14;;;;;;;15.32;9.60;;;4.90;99.90;;;;;;4755341;30;20063;-70
2023/04/14 05:02:41;;;;;;;17.33;10.32;;;4.90;99.90;;;;;;4764835;30;20089;-71
2023/04/14 05:05:10;;;;;;;16.42;10.32;;;4.90;99.90;;;;;;4743356;30;20044;-70
2023/04/14 05:07:37;;;;;;;14.68;10.70;;;5.00;99.90;;;;;;4765637;30;20115;-70
2023/04/14 05:10:04;;;;;;;15.45;10.63;;;5.00;99.90;;;;;;4762799;30;20048;-71
2023/04/14 05:12:32;;;;;;;16.67;10.75;;;5.00;99.90;;;;;;4765390;30;20112;-72
2023/04/14 05:14:59;;;;;;;17.00;10.95;;;5.00;99.90;;;;;;4779327;30;20380;-71
2023/04/14 05:17:26;;;;;;;16.63;10.57;;;5.00;99.90;;;;;;4761420;30;20103;-72
2023/04/14 05:19:54;;;;;;;16.27;10.35;;;5.00;99.90;;;;;;4764145;30;20043;-71
2023/04/14 05:22:21;;;;;;;17.63;10.25;;;5.00;99.90;;;;;;4763205;30;20056;-69
2023/04/14 05:24:50;;;;;;;14.25;10.43;;;5.00;99.90;;;;;;4765803;30;20074;-69
2023/04/14 05:27:17;;;;;;;16.45;10.50;;;5.00;99.90;;;;;;4763656;30;20056;-72
2023/04/14 05:29:44;;;;;;;18.23;10.32;;;5.10;99.90;;;;;;4765085;30;20419;-70
2023/04/14 05:32:13;;;;;;;17.52;11.88;;;5.10;99.90;;;;;;4765486;30;20062;-68
2023/04/14 05:34:41;;;;;;;22.23;10.88;;;5.10;99.90;;;;;;4764977;30;20427;-69
2023/04/14 05:37:08;;;;;;;16.98;11.02;;;5.20;99.90;;;;;;4759310;30;20123;-71
2023/04/14 05:39:35;;;;;;;15.75;10.88;;;5.20;99.90;;;;;;4760077;30;20061;-71
2023/04/14 05:42:03;;;;;;;16.77;11.00;;;5.30;99.90;;;;;;4763723;30;20461;-72
2023/04/14 05:44:30;;;;;;;14.68;10.05;;;5.40;99.90;;;;;;4742730;30;20055;-69
2023/04/14 05:46:57;;;;;;;14.98;10.40;;;5.40;99.90;;;;;;4754361;30;20056;-71
2023/04/14 05:49:25;;;;;;;16.92;10.70;;;5.50;99.90;;;;;;4756148;30;20412;-71
2023/04/14 05:51:55;;;;;;;17.25;10.93;;;5.50;99.90;;;;;;4761758;30;20115;-70
2023/04/14 05:54:22;;;;;;;16.83;10.25;;;5.60;99.90;;;;;;4760278;30;20090;-72
2023/04/14 05:56:49;;;;;;;13.60;9.23;;;5.60;99.90;;;;;;4763249;30;20051;-70
2023/04/14 05:59:17;;;;;;;14.07;9.93;;;5.70;99.90;;;;;;4761615;30;20060;-72
2023/04/14 06:01:44;;;;;;;13.32;9.15;;;5.70;99.90;;;;;;4762457;30;20054;-68
2023/04/14 06:04:11;;;;;;;14.68;9.60;;;5.80;99.90;;;;;;4773348;30;20051;-69
2023/04/14 06:06:39;;;;;;;14.15;9.93;;;5.80;99.90;;;;;;4766311;30;20093;-72
2023/04/14 06:09:06;;;;;;;15.82;10.05;;;5.90;99.90;;;;;;4782788;30;20051;-72
2023/04/14 06:11:34;;;;;;;13.52;8.73;;;6.00;99.90;;;;;;4783184;30;20047;-72
2023/04/14 06:14:01;;;;;;;14.65;10.25;;;5.90;99.90;;;;;;4766736;30;20044;-71
2023/04/14 06:16:29;;;;;;;15.23;10.80;;;5.90;99.90;;;;;;4753153;30;20044;-72
2023/04/14 06:18:57;;;;;;;13.50;8.82;;;5.90;99.90;;;;;;4767275;30;20105;-71
2023/04/14 06:21:24;;;;;;;14.45;9.55;;;5.90;99.90;;;;;;4762651;30;20487;-72
2023/04/14 06:23:52;;;;;;;15.57;10.30;;;6.00;99.90;;;;;;4764661;30;20085;-72
2023/04/14 06:26:19;;;;;;;15.07;9.70;;;6.10;99.90;;;;;;4768127;30;20052;-71
2023/04/14 06:28:46;;;;;;;13.88;8.73;;;6.20;99.90;;;;;;4765350;30;20074;-73
2023/04/14 06:31:14;;;;;;;14.35;8.85;;;6.20;99.90;;;;;;4764032;30;20519;-73
2023/04/14 06:33:41;;;;;;;12.50;8.07;;;6.20;99.90;;;;;;4767828;30;20407;-73
2023/04/14 06:36:08;;;;;;;13.30;8.93;;;6.30;99.90;;;;;;4766777;30;20130;-72
2023/04/14 06:38:36;;;;;;;12.55;8.65;;;6.40;99.90;;;;;;4765516;30;20090;-72
2023/04/14 06:41:03;;;;;;;13.82;8.85;;;6.60;99.90;;;;;;4756558;30;20059;-71
2023/04/14 06:43:30;;;;;;;13.18;8.93;;;6.70;99.90;;;;;;4760718;30;20057;-72
2023/04/14 06:45:58;;;;;;;14.50;8.15;;;6.70;99.90;;;;;;4753529;30;20063;-72
2023/04/14 06:48:26;;;;;;;11.85;8.10;;;6.70;99.90;;;;;;4748736;30;20064;-71
2023/04/14 06:50:54;;;;;;;13.40;7.60;;;6.70;99.90;;;;;;4753696;30;20395;-69
2023/04/14 06:53:22;;;;;;;12.07;7.90;;;6.80;99.90;;;;;;4768955;30;20334;-72
2023/04/14 06:55:59;;;;;;;11.93;7.72;;;6.90;99.90;;;;;;4758463;30;20508;-72
2023/04/14 06:58:29;;;;;;;10.65;7.40;;;6.80;99.90;;;;;;4759522;30;20040;-71
2023/04/14 07:01:15;;;;;;;10.82;7.43;;;6.80;99.90;;;;;;4767672;30;20536;-70
2023/04/14 07:04:02;;;;;;;13.20;7.70;;;6.90;99.90;;;;;;4762582;30;20543;-70
2023/04/14 07:06:34;;;;;;;13.02;8.15;;;6.90;99.90;;;;;;4746700;30;20123;-70
2023/04/14 07:09:01;;;;;;;12.77;8.13;;;7.00;99.90;;;;;;4770689;30;20043;-72
2023/04/14 07:11:29;;;;;;;12.55;7.97;;;7.10;99.90;;;;;;4766482;30;20043;-72
2023/04/14 07:13:56;;;;;;;12.95;9.00;;;7.10;99.90;;;;;;4759278;30;20150;-71
2023/04/14 07:16:23;;;;;;;13.00;8.40;;;7.10;99.90;;;;;;4760383;30;20364;-73
2023/04/14 07:18:51;;;;;;;14.98;7.60;;;7.00;99.90;;;;;;4759881;30;20035;-73
2023/04/14 07:21:18;;;;;;;10.45;7.45;;;7.30;99.90;;;;;;4764072;30;20055;-72
2023/04/14 07:23:45;;;;;;;10.15;7.00;;;7.30;99.90;;;;;;4775820;30;20142;-72
2023/04/14 07:26:12;;;;;;;9.60;7.00;;;7.40;99.90;;;;;;4769247;30;20053;-71
2023/04/14 07:28:40;;;;;;;14.80;7.60;;;7.40;99.90;;;;;;4768112;30;20047;-71
2023/04/14 07:31:08;;;;;;;12.80;7.57;;;7.40;99.90;;;;;;4763957;30;20076;-73
2023/04/14 07:33:36;;;;;;;11.35;7.20;;;7.40;99.90;;;;;;4749811;30;20545;-72
2023/04/14 07:36:03;;;;;;;9.60;7.00;;;7.50;99.90;;;;;;4762709;30;20052;-71
2023/04/14 07:38:31;;;;;;;10.27;7.13;;;7.50;99.90;;;;;;4734400;30;20069;-70
2023/04/14 07:41:05;;;;;;;9.57;6.20;;;7.60;99.90;;;;;;4768344;30;20039;-70
2023/04/14 07:43:35;;;;;;;9.80;5.90;;;7.60;99.90;;;;;;4759444;30;20048;-71
2023/04/14 07:46:04;;;;;;;8.93;5.93;;;7.70;99.90;;;;;;4764715;30;20082;-70
2023/04/14 07:48:33;;;;;;;8.73;5.82;;;7.80;99.90;;;;;;4761742;30;20052;-72
2023/04/14 07:51:01;;;;;;;10.23;5.88;;;7.80;99.90;;;;;;4756538;30;20050;-71
2023/04/14 07:53:30;;;;;;;11.40;5.70;;;8.00;99.90;;;;;;4761825;30;20132;-71
2023/04/14 07:55:58;;;;;;;10.02;5.55;;;8.20;99.90;;;;;;4766434;30;20135;-71
2023/04/14 07:58:26;;;;;;;7.78;5.30;;;8.30;99.90;;;;;;4741133;30;20117;-72
2023/04/14 08:00:55;;;;;;;10.13;6.00;;;8.50;99.90;;;;;;4747981;30;20039;-71
2023/04/14 08:03:22;;;;;;;9.70;6.18;;;8.50;99.90;;;;;;4756470;30;20050;-72
2023/04/14 08:05:50;;;;;;;8.45;5.78;;;8.50;99.90;;;;;;4756576;30;20040;-72
2023/04/14 08:08:18;;;;;;;10.63;5.65;;;8.60;99.90;;;;;;4762139;30;20114;-72
2023/04/14 08:10:45;;;;;;;9.20;5.65;;;8.80;99.90;;;;;;4766885;30;20050;-72
2023/04/14 08:13:12;;;;;;;10.70;5.72;;;8.90;99.90;;;;;;4763555;30;20542;-72
2023/04/14 08:15:40;;;;;;;7.75;5.45;;;9.10;99.90;;;;;;4764759;30;20039;-71
2023/04/14 08:18:07;;;;;;;8.35;5.30;;;9.40;99.90;;;;;;4768403;30;20055;-73
2023/04/14 08:20:34;;;;;;;9.80;5.90;;;9.60;99.90;;;;;;4782525;30;20043;-72
2023/04/14 08:23:02;;;;;;;9.27;5.65;;;9.20;99.90;;;;;;4764282;30;20075;-71
2023/04/14 08:25:29;;;;;;;7.68;5.40;;;9.30;99.90;;;;;;4767676;30;20566;-73
2023/04/14 08:27:56;;;;;;;9.70;5.60;;;9.50;99.90;;;;;;4780329;30;20467;-72
2023/04/14 08:30:25;;;;;;;9.18;5.63;;;9.50;99.90;;;;;;4760740;30;20044;-70
2023/04/14 08:32:52;;;;;;;8.38;5.38;;;9.20;99.90;;;;;;4765323;30;20078;-70
2023/04/14 08:35:25;;;;;;;7.00;5.13;;;9.50;99.90;;;;;;4765299;30;20044;-71
2023/04/14 08:38:07;;;;;;;9.30;5.45;;;9.60;99.90;;;;;;4748804;30;20511;-69
2023/04/14 08:40:39;;;;;;;7.22;5.03;;;9.80;99.90;;;;;;4761854;30;20059;-71
2023/04/14 08:43:07;;;;;;;7.40;5.63;;;10.00;99.90;;;;;;4759616;30;20054;-73
2023/04/14 08:45:35;;;;;;;9.38;5.13;;;10.10;99.90;;;;;;4767861;30;20054;-71
2023/04/14 08:48:04;;;;;;;12.52;5.97;;;9.90;99.90;;;;;;4766743;30;20122;-73
2023/04/14 08:50:44;;;;;;;8.30;5.68;;;9.90;99.90;;;;;;4758326;30;20543;-71
2023/04/14 08:53:12;;;;;;;10.88;5.13;;;10.00;99.90;;;;;;4764194;30;20463;-73
2023/04/14 08:55:41;;;;;;;8.02;4.63;;;10.30;99.90;;;;;;4760650;30;20056;-71
2023/04/14 08:58:11;;;;;;;9.13;5.13;;;10.30;99.90;;;;;;4770151;30;20052;-69
2023/04/14 09:00:39;;;;;;;6.18;4.60;;;10.50;99.90;;;;;;4763994;30;20043;-72
2023/04/14 09:03:10;;;;;;;10.07;4.78;;;10.40;99.90;;;;;;4764852;30;20423;-71
2023/04/14 09:05:39;;;;;;;8.77;5.37;;;10.20;99.90;;;;;;4749983;30;20150;-70
2023/04/14 09:08:07;;;;;;;7.18;4.78;;;10.20;99.90;;;;;;4758296;30;20052;-71
2023/04/14 09:10:35;;;;;;;6.75;4.65;;;10.50;99.90;;;;;;4763516;30;20047;-69
2023/04/14 09:13:03;;;;;;;6.57;4.80;;;10.40;99.90;;;;;;4756289;30;20468;-72
2023/04/14 09:15:30;;;;;;;8.68;5.75;;;10.30;99.90;;;;;;4757068;30;20041;-70
2023/04/14 09:17:58;;;;;;;7.93;5.30;;;10.30;99.90;;;;;;4758314;30;20044;-71
2023/04/14 09:20:25;;;;;;;6.00;4.72;;;10.30;99.90;;;;;;4739514;30;20177;-71
2023/04/14 09:23:08;;;;;;;8.20;5.68;;;10.40;99.90;;;;;;4762439;30;20597;-72
2023/04/14 09:25:41;;;;;;;7.40;4.60;;;10.60;99.90;;;;;;4760330;30;20476;-73
2023/04/14 09:28:10;;;;;;;6.93;4.65;;;10.70;99.90;;;;;;4755474;30;20048;-70
2023/04/14 09:30:38;;;;;;;7.25;5.03;;;10.60;99.90;;;;;;4762735;30;20106;-69
2023/04/14 09:33:06;;;;;;;11.57;6.75;;;10.50;99.90;;;;;;4759056;30;20044;-71
2023/04/14 09:35:47;;;;;;;7.13;4.70;;;10.80;99.90;;;;;;4763634;30;20044;-72
2023/04/14 09:38:33;;;;;;;6.55;5.03;;;10.90;99.90;;;;;;4767737;30;20074;-70
2023/04/14 09:41:01;;;;;;;7.35;4.57;;;10.80;99.90;;;;;;4746363;30;20044;-69
2023/04/14 09:43:29;;;;;;;6.68;4.57;;;10.50;99.90;;;;;;4769437;30;20515;-70
2023/04/14 09:46:03;;;;;;;9.02;4.70;;;10.30;99.90;;;;;;4777122;30;20415;-70
2023/04/14 09:48:30;;;;;;;7.32;4.72;;;10.30;99.90;;;;;;4776256;30;20154;-71
2023/04/14 09:51:05;;;;;;;6.93;4.38;;;10.20;99.90;;;;;;4761747;30;20531;-70
2023/04/14 09:53:38;;;;;;;6.90;4.70;;;10.40;99.90;;;;;;4748270;30;20526;-71
2023/04/14 09:56:09;;;;;;;6.40;4.38;;;10.40;99.90;;;;;;4745620;30;20055;-71
2023/04/14 09:58:42;;;;;;;6.07;4.40;;;10.50;99.90;;;;;;4762424;30;20114;-71
2023/04/14 10:01:13;;;;;;;6.43;4.78;;;10.60;99.90;;;;;;4769488;30;20680;-70
2023/04/14 10:03:42;;;;;;;6.85;5.03;;;10.80;99.90;;;;;;4761184;30;20132;-73
2023/04/14 10:06:14;;;;;;;7.05;5.15;;;11.00;99.90;;;;;;4770242;30;20052;-71
2023/04/14 10:08:45;;;;;;;9.13;5.43;;;11.10;99.90;;;;;;4768484;30;20058;-71
2023/04/14 10:11:33;;;;;;;8.48;5.78;;;11.00;99.90;;;;;;4775867;30;20060;-70
2023/04/14 10:14:03;;;;;;;9.38;5.60;;;11.20;99.90;;;;;;4775660;30;20036;-70
2023/04/14 10:16:31;;;;;;;7.53;5.13;;;11.40;99.90;;;;;;4758694;30;20051;-70
2023/04/14 10:19:00;;;;;;;9.50;5.47;;;11.70;99.90;;;;;;4752120;30;20063;-70
2023/04/14 10:21:28;;;;;;;7.18;4.85;;;11.80;99.90;;;;;;4762300;30;20056;-71
2023/04/14 10:23:56;;;;;;;7.70;4.97;;;12.00;99.90;;;;;;4755242;30;20133;-70
2023/04/14 10:26:26;;;;;;;7.97;5.22;;;12.10;99.90;;;;;;4755632;30;20050;-69
2023/04/14 10:28:55;;;;;;;8.05;5.30;;;12.40;99.90;;;;;;4778486;30;20483;-70
2023/04/14 10:31:39;;;;;;;9.35;5.22;;;12.20;99.90;;;;;;4758673;30;20144;-70
2023/04/14 10:34:11;;;;;;;7.10;5.60;;;11.90;99.90;;;;;;4756196;30;20047;-71
2023/04/14 10:36:39;;;;;;;7.68;5.65;;;12.30;99.90;;;;;;4770471;30;20044;-71
2023/04/14 10:39:08;;;;;;;8.02;5.03;;;12.70;99.90;;;;;;4767505;30;20055;-70
2023/04/14 10:41:48;;;;;;;7.15;5.10;;;13.30;99.90;;;;;;4764470;30;20046;-71
2023/04/14 10:44:23;;;;;;;8.25;4.90;;;13.10;99.90;;;;;;4760942;30;20043;-71
2023/04/14 10:46:51;;;;;;;5.30;4.15;;;12.70;99.90;;;;;;4782316;30;20498;-70
2023/04/14 10:49:23;;;;;;;5.97;4.05;;;13.10;99.90;;;;;;4761638;30;20097;-69
2023/04/14 10:51:51;;;;;;;8.35;4.60;;;13.60;99.90;;;;;;4769026;30;20134;-70
2023/04/14 10:54:18;;;;;;;5.18;4.60;;;13.60;99.90;;;;;;4759663;30;20220;-71
2023/04/14 10:57:11;;;;;;;5.85;4.38;;;13.60;99.90;;;;;;4760005;30;20135;-72
2023/04/14 10:59:42;;;;;;;6.85;4.47;;;13.50;99.90;;;;;;4751278;30;20040;-70
2023/04/14 11:02:26;;;;;;;5.05;4.20;;;13.70;99.90;;;;;;4756560;30;20066;-71
2023/04/14 11:05:07;;;;;;;7.93;5.68;;;13.70;99.90;;;;;;4765397;30;20047;-69
2023/04/14 11:07:44;;;;;;;6.78;4.75;;;13.60;99.90;;;;;;4764224;30;20163;-72
2023/04/14 11:10:21;;;;;;;7.20;4.28;;;13.50;99.90;;;;;;4750361;30;20063;-70
2023/04/14 11:12:54;;;;;;;5.78;4.22;;;13.70;99.90;;;;;;4769773;30;20043;-70
2023/04/14 11:15:21;;;;;;;6.20;4.50;;;14.20;99.90;;;;;;4758815;30;20043;-69
2023/04/14 11:17:50;;;;;;;7.50;4.40;;;14.50;99.90;;;;;;4764237;30;20539;-70
2023/04/14 11:20:19;;;;;;;5.10;3.95;;;14.50;99.90;;;;;;4751436;30;20052;-70
2023/04/14 11:22:49;;;;;;;6.78;4.30;;;14.30;99.90;;;;;;4765641;30;20052;-72
2023/04/14 11:25:18;;;;;;;6.97;4.20;;;14.10;99.90;;;;;;4777308;30;20055;-72
2023/04/14 11:27:50;;;;;;;7.65;4.32;;;14.20;99.90;;;;;;4760113;30;20146;-70
2023/04/14 11:30:19;;;;;;;6.10;4.65;;;14.00;99.90;;;;;;4766967;30;20052;-69
2023/04/14 11:32:50;;;;;;;6.13;4.38;;;13.80;99.90;;;;;;4762781;30;20047;-72
2023/04/14 11:35:25;;;;;;;5.72;4.43;;;13.80;99.90;;;;;;4753962;30;20047;-70
2023/04/14 11:37:57;;;;;;;7.32;5.03;;;14.20;99.90;;;;;;4750727;30;20178;-70
2023/04/14 11:40:26;;;;;;;;;;;14.50;99.90;;;;;;4756422;30;20050;-70
2023/04/14 11:42:56;;;;;;;6.15;4.50;;;14.60;99.90;;;;;;4764916;30;20135;-70
2023/04/14 11:45:28;;;;;;;7.18;4.57;;;15.00;99.90;;;;;;4762654;30;20048;-69
2023/04/14 11:48:00;;;;;;;6.60;4.75;;;15.00;99.90;;;;;;4754487;30;20071;-71
2023/04/14 11:50:30;;;;;;;6.25;4.38;;;15.10;99.90;;;;;;4765938;30;20438;-70
2023/04/14 11:53:01;;;;;;;6.30;4.55;;;14.70;99.90;;;;;;4766593;30;20078;-71
2023/04/14 11:55:29;;;;;;;5.57;4.15;;;15.00;99.90;;;;;;4754149;30;20204;-72
2023/04/14 11:57:57;;;;;;;5.00;4.22;;;15.30;99.90;;;;;;4750491;30;20503;-71
2023/04/14 12:00:26;;;;;;;5.28;3.90;;;15.30;99.90;;;;;;4760525;30;20498;-71
2023/04/14 12:02:53;;;;;;;6.45;4.07;;;15.50;99.90;;;;;;4752008;30;20517;-71
2023/04/14 12:05:28;;;;;;;5.07;4.10;;;15.60;99.90;;;;;;4763340;30;20051;-69
2023/04/14 12:08:07;;;;;;;5.40;4.32;;;15.70;99.90;;;;;;4757282;30;20048;-71
2023/04/14 12:10:40;;;;;;;6.15;4.40;;;16.20;99.90;;;;;;4758006;30;20109;-69
2023/04/14 12:13:09;;;;;;;7.93;5.32;;;16.20;99.90;;;;;;4773505;30;20126;-70
2023/04/14 12:15:40;;;;;;;7.50;4.68;;;16.00;99.90;;;;;;4753136;30;20052;-70
2023/04/14 12:18:13;;;;;;;5.75;4.38;;;15.80;99.90;;;;;;4764806;30;20040;-71
2023/04/14 12:21:01;;;;;;;6.90;4.55;;;15.70;99.90;;;;;;4773688;30;20109;-67
2023/04/14 12:23:34;;;;;;;5.05;4.55;;;15.50;99.90;;;;;;4759831;30;20579;-69
2023/04/14 12:26:02;;;;;;;6.40;4.53;;;15.20;99.90;;;;;;4765714;30;20151;-70
2023/04/14 12:28:29;;;;;;;5.93;4.20;;;15.60;99.90;;;;;;4759058;30;20055;-70
2023/04/14 12:31:02;;;;;;;6.53;4.88;;;15.20;99.90;;;;;;4766217;30;20047;-71
2023/04/14 12:33:31;;;;;;;5.82;4.40;;;15.60;99.90;;;;;;4757204;30;20051;-72
2023/04/14 12:36:05;;;;;;;5.57;4.50;;;15.70;99.90;;;;;;4756112;30;20067;-70
2023/04/14 12:38:33;;;;;;;6.78;4.82;;;15.30;99.90;;;;;;4759917;30;20507;-70
2023/04/14 12:41:01;;;;;;;6.20;4.63;;;14.90;99.90;;;;;;4735688;30;20292;-70
2023/04/14 12:43:33;;;;;;;6.38;4.55;;;14.40;99.90;;;;;;4761488;30;20048;-71
2023/04/14 12:46:04;;;;;;;7.80;4.50;;;14.20;99.90;;;;;;4780012;30;20063;-68
2023/04/14 12:48:40;;;;;;;5.85;4.60;;;14.70;99.90;;;;;;4765484;30;20511;-69
2023/04/14 12:51:12;;;;;;;7.03;4.03;;;14.90;99.90;;;;;;4764643;30;20511;-69
2023/04/14 12:53:41;;;;;;;5.55;4.05;;;14.70;99.90;;;;;;4753075;30;20051;-69
2023/04/14 12:56:14;;;;;;;5.50;4.10;;;14.80;99.90;;;;;;4772685;30;20150;-69
2023/04/14 12:58:47;;;;;;;5.75;4.32;;;14.30;99.90;;;;;;4758215;30;20456;-70
2023/04/14 13:01:18;;;;;;;5.15;4.63;;;14.70;99.90;;;;;;4764114;30;20050;-70
2023/04/14 13:03:50;;;;;;;6.85;4.22;;;14.60;99.90;;;;;;4757474;30;20051;-70
2023/04/14 13:06:20;;;;;;;5.95;4.18;;;14.90;99.90;;;;;;4764965;30;20043;-68